Time;durP1;ratioP1;P1;durP2;ratioP2;P2;SDS_P1;SDS_P2;PMS_P1;PMS_P2;Temp;Humidity;BMP_temperature;BMP_pressure;BME280_temperature;BME280_humidity;BME280_pressure;Samples;Min_cycle;Max_cycle;Signal;HPM_P1;HPM_P2
2023/04/07 00:01:41;;;;;;;5.40;4.00;;;;;;;8.89;64.17;100451.80;108041;1257;61237;-85
2023/04/07 00:04:10;;;;;;;5.60;4.90;;;;;;;8.91;64.08;100451.45;108037;1257;74816;-85
2023/04/07 00:06:42;;;;;;;6.50;5.30;;;;;;;8.88;63.97;100452.55;108226;1257;72269;-83
2023/04/07 00:09:14;;;;;;;6.10;4.60;;;;;;;8.86;63.94;100456.56;108139;1255;73885;-82
2023/04/07 00:11:51;;;;;;;6.50;5.20;;;;;;;8.83;63.80;100457.38;108137;1254;61916;-86
2023/04/07 00:14:20;;;;;;;6.70;4.90;;;;;;;8.81;63.90;100455.05;108466;1255;62770;-84
2023/04/07 00:16:48;;;;;;;5.60;4.80;;;;;;;8.80;63.90;100458.20;108496;1254;74280;-82
2023/04/07 00:19:17;;;;;;;6.00;5.10;;;;;;;8.79;63.80;100456.64;108391;1257;72394;-83
2023/04/07 00:21:46;;;;;;;6.30;4.90;;;;;;;8.80;63.90;100457.18;108067;1254;71977;-85
2023/04/07 00:24:19;;;;;;;6.00;5.10;;;;;;;8.80;63.94;100459.90;108016;1259;60178;-83
2023/04/07 00:27:02;;;;;;;5.10;4.20;;;;;;;8.81;63.84;100462.52;107941;1256;61322;-83
2023/04/07 00:29:30;;;;;;;4.30;3.50;;;;;;;8.78;63.64;100466.64;108003;1259;74935;-87
2023/04/07 00:32:02;;;;;;;4.40;3.40;;;;;;;8.75;63.50;100467.93;108081;1257;71686;-85
2023/04/07 00:34:31;;;;;;;3.30;2.50;;;;;;;8.72;63.31;100469.64;108158;1255;73704;-84
2023/04/07 00:37:00;;;;;;;4.10;3.30;;;;;;;8.67;63.13;100468.90;108021;1257;61795;-85
2023/04/07 00:39:30;;;;;;;3.80;2.80;;;;;;;8.66;63.19;100469.27;108185;1257;61251;-84
2023/04/07 00:41:58;;;;;;;4.60;3.50;;;;;;;8.64;62.93;100471.30;107784;1254;74887;-87
2023/04/07 00:44:27;;;;;;;4.80;3.70;;;;;;;8.61;62.78;100473.77;108140;1257;73490;-86
2023/04/07 00:46:56;;;;;;;4.40;3.20;;;;;;;8.57;62.57;100474.30;108112;1259;73706;-85
2023/04/07 00:49:27;;;;;;;4.20;3.10;;;;;;;8.53;62.42;100475.26;108166;1256;62405;-83
2023/04/07 00:51:58;;;;;;;4.10;2.80;;;;;;;8.50;62.21;100475.80;108147;1257;61346;-84
2023/04/07 00:54:29;;;;;;;3.90;3.00;;;;;;;8.48;62.24;100476.24;108126;1256;75438;-84
2023/04/07 00:57:00;;;;;;;3.80;2.90;;;;;;;8.48;62.30;100477.73;108024;1256;73682;-83
2023/04/07 00:59:30;;;;;;;4.30;2.80;;;;;;;8.48;62.13;100478.41;108009;1255;73061;-83
2023/04/07 01:02:09;;;;;;;2.70;2.00;;;;;;;8.48;61.83;100482.89;107957;1254;61145;-83
2023/04/07 01:04:46;;;;;;;3.10;2.00;;;;;;;8.45;61.62;100489.67;107812;1254;61414;-83
2023/04/07 01:07:23;;;;;;;4.20;2.70;;;;;;;8.42;61.33;100494.17;108072;1255;74904;-83
2023/04/07 01:10:04;;;;;;;3.80;2.70;;;;;;;8.42;61.09;100492.13;107976;1257;73732;-83
2023/04/07 01:13:01;;;;;;;2.90;2.30;;;;;;;8.41;61.08;100494.67;108016;1255;73921;-85
2023/04/07 01:15:30;;;;;;;3.10;2.40;;;;;;;8.43;60.93;100495.71;108083;1254;61249;-82
2023/04/07 01:18:21;;;;;;;3.00;2.30;;;;;;;8.42;60.83;100498.64;108139;1254;61259;-83
2023/04/07 01:20:53;;;;;;;3.40;2.50;;;;;;;8.41;60.85;100500.95;108057;1254;75349;-83
2023/04/07 01:23:38;;;;;;;3.80;2.10;;;;;;;8.41;60.82;100502.02;107893;1256;71828;-82
2023/04/07 01:26:13;;;;;;;2.40;1.80;;;;;;;8.40;60.87;100505.95;107806;1254;73164;-82
2023/04/07 01:28:56;;;;;;;2.50;1.80;;;;;;;8.36;60.91;100506.96;108063;1254;62288;-82
2023/04/07 01:31:26;;;;;;;2.30;1.80;;;;;;;8.31;61.01;100506.99;108047;1255;61341;-84
2023/04/07 01:33:56;;;;;;;2.80;1.80;;;;;;;8.31;60.98;100507.95;107894;1257;74704;-84
2023/04/07 01:36:27;;;;;;;2.70;2.00;;;;;;;8.31;60.92;100506.35;108022;1257;73123;-83
2023/04/07 01:38:55;;;;;;;3.10;2.10;;;;;;;8.30;60.84;100511.36;108322;1257;71112;-83
2023/04/07 01:41:27;;;;;;;2.90;2.00;;;;;;;8.32;60.74;100513.28;108718;1254;59450;-83
2023/04/07 01:43:56;;;;;;;3.80;2.50;;;;;;;8.33;60.75;100513.00;108050;1257;59956;-83
2023/04/07 01:46:25;;;;;;;3.30;2.40;;;;;;;8.33;60.72;100513.20;107668;1254;75895;-84
2023/04/07 01:48:53;;;;;;;3.20;2.20;;;;;;;8.32;60.61;100510.32;108042;1255;72518;-84
2023/04/07 01:51:23;;;;;;;3.40;2.20;;;;;;;8.33;60.58;100516.34;108092;1254;71873;-82
2023/04/07 01:53:52;;;;;;;4.70;2.60;;;;;;;8.33;60.55;100515.66;108102;1254;61142;-83
2023/04/07 01:56:20;;;;;;;3.20;2.30;;;;;;;8.35;60.61;100518.14;108017;1255;61585;-83
2023/04/07 01:58:52;;;;;;;3.10;2.20;;;;;;;8.38;60.61;100518.02;108103;1254;75583;-84
2023/04/07 02:01:22;;;;;;;3.40;2.30;;;;;;;8.37;60.71;100524.24;108084;1255;74672;-84
2023/04/07 02:04:16;;;;;;;3.20;2.30;;;;;;;8.36;60.77;100526.94;107992;1260;73577;-83
2023/04/07 02:06:48;;;;;;;3.90;2.00;;;;;;;8.35;60.89;100530.79;107879;1255;61349;-82
2023/04/07 02:09:20;;;;;;;2.70;1.90;;;;;;;8.33;60.94;100532.05;108045;1257;61289;-83
2023/04/07 02:11:50;;;;;;;3.30;2.20;;;;;;;8.31;61.00;100531.69;108017;1255;75816;-85
2023/04/07 02:14:23;;;;;;;3.70;2.50;;;;;;;8.30;61.21;100531.89;108088;1256;72652;-83
2023/04/07 02:17:24;;;;;;;3.50;2.30;;;;;;;8.26;61.24;100534.39;107841;1259;72922;-83
2023/04/07 02:19:53;;;;;;;4.10;2.70;;;;;;;8.24;61.41;100532.54;108025;1255;61343;-83
2023/04/07 02:22:21;;;;;;;3.40;2.60;;;;;;;8.23;61.26;100536.27;107839;1257;61141;-84
2023/04/07 02:24:51;;;;;;;4.40;2.40;;;;;;;8.22;61.45;100537.04;108058;1254;72997;-83
2023/04/07 02:27:22;;;;;;;;;;;;;;;8.20;61.47;100537.27;108147;1254;71392;-83
2023/04/07 02:29:53;;;;;;;3.60;2.30;;;;;;;8.18;61.50;100538.20;108110;1255;74788;-83
2023/04/07 02:32:24;;;;;;;3.50;2.40;;;;;;;8.19;61.55;100538.69;107961;1255;61688;-84
2023/04/07 02:34:53;;;;;;;3.30;2.40;;;;;;;8.19;61.65;100541.50;108111;1254;61163;-85
2023/04/07 02:37:21;;;;;;;4.20;2.60;;;;;;;8.19;61.52;100543.64;107884;1262;74200;-85
2023/04/07 02:39:50;;;;;;;5.30;2.70;;;;;;;8.16;61.49;100548.81;107968;1257;73962;-87
2023/04/07 02:42:22;;;;;;;3.50;2.40;;;;;;;8.14;61.24;100547.40;108034;1256;73376;-85
2023/04/07 02:44:50;;;;;;;3.90;2.50;;;;;;;8.12;61.23;100545.11;108047;1254;61942;-84
2023/04/07 02:47:19;;;;;;;3.30;2.30;;;;;;;8.10;61.23;100549.39;108017;1254;62010;-82
2023/04/07 02:49:49;;;;;;;5.20;2.60;;;;;;;8.10;61.30;100556.63;108120;1258;73930;-82
2023/04/07 02:52:18;;;;;;;4.60;2.50;;;;;;;8.09;61.30;100557.45;108108;1254;72458;-85
2023/04/07 02:54:46;;;;;;;3.80;2.20;;;;;;;8.09;61.24;100561.34;107859;1257;72205;-83
2023/04/07 02:57:15;;;;;;;3.20;2.30;;;;;;;8.09;61.21;100565.35;107857;1254;61227;-83
2023/04/07 02:59:44;;;;;;;3.50;2.50;;;;;;;8.09;61.07;100565.55;107949;1257;60548;-84
2023/04/07 03:02:12;;;;;;;5.50;2.40;;;;;;;8.07;61.01;100564.19;107906;1260;73950;-84
2023/04/07 03:04:43;;;;;;;3.10;2.20;;;;;;;8.03;61.05;100568.52;108411;1254;71181;-83
2023/04/07 03:07:11;;;;;;;3.50;2.20;;;;;;;7.99;61.07;100575.42;108473;1254;72674;-83
2023/04/07 03:09:43;;;;;;;3.20;2.20;;;;;;;7.97;61.15;100577.90;108208;1257;61826;-83
2023/04/07 03:12:15;;;;;;;;;;;;;;;7.90;61.24;100581.13;108092;1255;61097;-84
2023/04/07 03:14:44;;;;;;;3.20;2.10;;;;;;;7.82;61.34;100580.27;107906;1254;74673;-84
2023/04/07 03:17:17;;;;;;;2.60;1.80;;;;;;;7.79;61.57;100583.05;108153;1254;73015;-84
2023/04/07 03:19:47;;;;;;;2.90;2.00;;;;;;;7.78;61.64;100586.75;107899;1260;75856;-85
2023/04/07 03:22:16;;;;;;;3.30;2.30;;;;;;;7.75;61.66;100585.99;108029;1257;61150;-85
2023/04/07 03:24:48;;;;;;;3.30;2.30;;;;;;;7.75;61.70;100590.89;108006;1256;60602;-82
2023/04/07 03:27:19;;;;;;;3.00;2.10;;;;;;;7.78;61.69;100596.42;107854;1257;75848;-84
2023/04/07 03:29:51;;;;;;;3.20;2.10;;;;;;;7.80;61.71;100599.71;107937;1254;72694;-85
2023/04/07 03:32:20;;;;;;;2.50;1.80;;;;;;;7.81;61.57;100601.54;107992;1257;73641;-84
2023/04/07 03:34:49;;;;;;;2.70;1.70;;;;;;;7.79;61.33;100607.88;107883;1254;62485;-83
2023/04/07 03:37:17;;;;;;;3.30;2.00;;;;;;;7.77;61.29;100609.61;107894;1255;60345;-83
2023/04/07 03:39:48;;;;;;;2.60;1.70;;;;;;;7.76;61.15;100614.48;108153;1257;74716;-85
2023/04/07 03:42:27;;;;;;;3.10;2.20;;;;;;;7.72;60.73;100618.77;108218;1257;73796;-84
2023/04/07 03:45:00;;;;;;;2.70;2.00;;;;;;;7.66;60.61;100622.05;108019;1259;72554;-84
2023/04/07 03:47:32;;;;;;;2.60;2.00;;;;;;;7.62;60.60;100626.22;107946;1255;61240;-83
2023/04/07 03:50:03;;;;;;;3.00;2.20;;;;;;;7.58;60.53;100627.46;108171;1259;61154;-83
2023/04/07 03:52:35;;;;;;;2.80;2.00;;;;;;;7.55;60.55;100626.17;107981;1258;72248;-86
2023/04/07 03:55:18;;;;;;;3.10;2.20;;;;;;;7.54;60.60;100631.95;108705;1254;73700;-84
2023/04/07 03:57:47;;;;;;;3.00;2.10;;;;;;;7.53;60.65;100631.83;108519;1255;73703;-84
2023/04/07 04:00:21;;;;;;;3.50;2.60;;;;;;;7.51;60.58;100637.80;108560;1256;61369;-87
2023/04/07 04:03:01;;;;;;;4.10;2.40;;;;;;;7.47;60.57;100637.23;108508;1254;60393;-84
2023/04/07 04:05:31;;;;;;;2.90;2.20;;;;;;;7.42;60.62;100641.90;108174;1255;73681;-84
2023/04/07 04:08:00;;;;;;;3.30;2.40;;;;;;;7.40;60.60;100646.91;108216;1254;73786;-84
2023/04/07 04:10:30;;;;;;;3.30;2.30;;;;;;;7.42;60.66;100648.61;108156;1256;71711;-84
2023/04/07 04:12:59;;;;;;;3.40;2.30;;;;;;;7.42;60.70;100652.27;108023;1254;61122;-84
2023/04/07 04:15:30;;;;;;;4.00;2.90;;;;;;;7.43;60.82;100658.73;108052;1257;61151;-84
2023/04/07 04:17:59;;;;;;;3.80;2.70;;;;;;;7.47;60.94;100659.19;107946;1255;74036;-84
2023/04/07 04:20:33;;;;;;;4.30;2.80;;;;;;;7.51;60.90;100664.70;108049;1259;73033;-83
2023/04/07 04:23:21;;;;;;;3.70;2.80;;;;;;;7.56;60.89;100666.60;108114;1259;72734;-84
2023/04/07 04:26:12;;;;;;;3.80;2.60;;;;;;;7.58;60.76;100666.39;107779;1257;61240;-83
2023/04/07 04:28:44;;;;;;;3.40;2.50;;;;;;;7.56;60.68;100670.01;108484;1260;60792;-83
2023/04/07 04:34:36;;;;;;;3.10;2.40;;;;;;;7.56;60.65;100676.39;108334;1260;72676;-84
2023/04/07 04:37:04;;;;;;;3.40;2.50;;;;;;;7.61;60.65;100685.84;108101;1254;73619;-84
2023/04/07 04:39:33;;;;;;;3.40;2.50;;;;;;;7.65;60.71;100682.35;108103;1254;61257;-83
2023/04/07 04:42:04;;;;;;;3.50;2.50;;;;;;;7.69;60.66;100688.41;108169;1255;61462;-83
2023/04/07 04:44:35;;;;;;;4.20;2.80;;;;;;;7.70;60.56;100693.53;108168;1259;75589;-83
2023/04/07 04:47:13;;;;;;;3.80;2.60;;;;;;;7.73;60.54;100696.73;107863;1257;73474;-83
2023/04/07 04:49:45;;;;;;;3.70;2.30;;;;;;;7.78;60.59;100698.42;108016;1254;73904;-83
2023/04/07 04:52:14;;;;;;;4.20;2.60;;;;;;;7.81;60.46;100698.26;107994;1254;61109;-83
2023/04/07 04:54:45;;;;;;;3.30;2.60;;;;;;;7.81;60.38;100697.27;108056;1255;61268;-84
2023/04/07 04:57:13;;;;;;;3.80;2.70;;;;;;;7.83;60.28;100703.36;107952;1254;75535;-84
2023/04/07 04:59:48;;;;;;;3.80;2.90;;;;;;;7.86;60.34;100707.48;107979;1256;72979;-82
2023/04/07 05:02:17;;;;;;;4.20;3.10;;;;;;;7.92;60.24;100713.13;107857;1260;73741;-85
2023/04/07 05:04:46;;;;;;;4.00;3.10;;;;;;;7.98;60.06;100715.05;107831;1257;61545;-84
2023/04/07 05:07:22;;;;;;;4.10;3.20;;;;;;;7.96;59.61;100714.02;108015;1257;62607;-84
2023/04/07 05:09:55;;;;;;;3.30;2.60;;;;;;;7.97;59.66;100716.91;108048;1259;74707;-84
2023/04/07 05:12:24;;;;;;;3.20;2.50;;;;;;;8.00;59.57;100710.95;108033;1254;71954;-84
2023/04/07 05:14:59;;;;;;;4.00;3.00;;;;;;;8.07;59.69;100716.24;107947;1260;73631;-84
2023/04/07 05:17:28;;;;;;;4.30;2.70;;;;;;;8.15;59.63;100720.39;108106;1257;61790;-84
2023/04/07 05:19:58;;;;;;;4.00;2.90;;;;;;;8.20;59.35;100719.21;107751;1255;61175;-84
2023/04/07 05:22:40;;;;;;;4.20;3.10;;;;;;;8.24;59.44;100721.89;108120;1258;75134;-84
2023/04/07 05:25:15;;;;;;;4.80;3.20;;;;;;;8.29;59.37;100724.76;108026;1259;73007;-84
2023/04/07 05:27:44;;;;;;;3.80;2.90;;;;;;;8.34;59.37;100727.08;108002;1257;71794;-85
2023/04/07 05:30:21;;;;;;;4.70;3.10;;;;;;;8.41;59.19;100728.25;107934;1260;62224;-85
2023/04/07 05:32:51;;;;;;;3.90;3.00;;;;;;;8.48;59.14;100728.06;107978;1257;61256;-84
2023/04/07 05:35:33;;;;;;;4.10;3.10;;;;;;;8.57;59.17;100733.50;108046;1255;75534;-84
2023/04/07 05:38:04;;;;;;;4.00;3.00;;;;;;;8.68;59.20;100736.02;107920;1254;72829;-84
2023/04/07 05:40:34;;;;;;;4.00;3.10;;;;;;;8.78;59.08;100738.88;108081;1254;72897;-84
2023/04/07 05:43:06;;;;;;;3.90;2.70;;;;;;;8.84;58.79;100740.94;108051;1259;61147;-83
2023/04/07 05:45:36;;;;;;;4.00;3.10;;;;;;;8.89;58.66;100743.20;107879;1257;61101;-83
2023/04/07 05:48:06;;;;;;;3.70;3.00;;;;;;;8.94;58.52;100746.33;107954;1257;72773;-84
2023/04/07 05:50:40;;;;;;;3.50;2.70;;;;;;;9.01;58.35;100749.02;108074;1254;72567;-85
2023/04/07 05:53:11;;;;;;;3.80;3.10;;;;;;;9.06;58.28;100750.95;108077;1254;72997;-87
2023/04/07 05:55:42;;;;;;;3.90;2.70;;;;;;;9.07;58.16;100753.38;108679;1254;61327;-85
2023/04/07 05:58:15;;;;;;;3.30;2.70;;;;;;;9.15;58.08;100752.80;108294;1256;60354;-84
2023/04/07 06:00:49;;;;;;;3.40;2.30;;;;;;;9.24;57.74;100759.06;108104;1260;75426;-84
2023/04/07 06:03:18;;;;;;;3.40;2.60;;;;;;;9.31;57.54;100761.56;108150;1255;74182;-83
2023/04/07 06:05:57;;;;;;;3.70;3.00;;;;;;;9.39;57.47;100760.80;108109;1256;73806;-84
2023/04/07 06:08:29;;;;;;;3.30;2.60;;;;;;;9.46;57.35;100759.13;108004;1260;61267;-86
2023/04/07 06:11:01;;;;;;;3.40;2.40;;;;;;;9.53;57.11;100760.89;107996;1254;61365;-85
2023/04/07 06:13:30;;;;;;;4.20;2.50;;;;;;;9.62;56.92;100760.74;108061;1255;75452;-85
2023/04/07 06:15:59;;;;;;;3.80;2.50;;;;;;;9.69;56.56;100765.16;108106;1258;73580;-83
2023/04/07 06:18:31;;;;;;;3.60;2.50;;;;;;;9.71;56.46;100769.04;108004;1257;72817;-83
2023/04/07 06:21:00;;;;;;;3.50;2.30;;;;;;;9.79;56.40;100774.70;108039;1256;61142;-84
2023/04/07 06:23:34;;;;;;;3.30;2.50;;;;;;;9.85;55.95;100778.78;108025;1257;61103;-84
2023/04/07 06:26:10;;;;;;;3.40;2.50;;;;;;;9.85;55.67;100783.95;107928;1254;73017;-85
2023/04/07 06:28:39;;;;;;;3.30;2.40;;;;;;;9.89;55.45;100783.59;107973;1257;73416;-85
2023/04/07 06:31:08;;;;;;;3.10;2.50;;;;;;;9.96;55.47;100786.27;107863;1255;71698;-84
2023/04/07 06:33:38;;;;;;;3.40;2.40;;;;;;;10.02;55.25;100790.58;108126;1259;61239;-85
2023/04/07 06:36:07;;;;;;;3.60;2.20;;;;;;;10.05;55.28;100791.89;108077;1254;61132;-84
2023/04/07 06:38:36;;;;;;;4.10;2.60;;;;;;;9.99;55.19;100789.96;108129;1254;73702;-85
2023/04/07 06:41:10;;;;;;;3.70;2.50;;;;;;;9.97;55.37;100792.59;108139;1254;73179;-85
2023/04/07 06:43:39;;;;;;;3.30;2.60;;;;;;;10.02;55.16;100794.53;108105;1254;73845;-85
2023/04/07 06:46:08;;;;;;;3.90;2.50;;;;;;;10.01;55.14;100796.18;108115;1254;61923;-85
2023/04/07 06:48:37;;;;;;;4.20;2.80;;;;;;;10.00;54.61;100794.66;108115;1255;61406;-84
2023/04/07 06:51:06;;;;;;;3.60;2.50;;;;;;;9.86;54.23;100794.70;108009;1254;74884;-85
2023/04/07 06:53:35;;;;;;;4.00;2.80;;;;;;;9.79;54.29;100797.90;108093;1254;72894;-84
2023/04/07 06:56:08;;;;;;;3.50;2.50;;;;;;;9.71;54.34;100796.55;108066;1254;73486;-85
2023/04/07 06:58:37;;;;;;;3.70;2.50;;;;;;;9.74;54.72;100797.89;108047;1254;61192;-85
2023/04/07 07:01:08;;;;;;;3.00;2.20;;;;;;;9.89;54.90;100802.35;108104;1254;60769;-85
2023/04/07 07:03:38;;;;;;;4.10;2.40;;;;;;;10.03;54.73;100799.18;108120;1254;75573;-85
2023/04/07 07:06:07;;;;;;;3.60;2.40;;;;;;;10.13;54.61;100803.09;108124;1256;72121;-85
2023/04/07 07:08:35;;;;;;;3.50;2.50;;;;;;;10.26;54.72;100802.54;108100;1258;72825;-87
2023/04/07 07:11:04;;;;;;;3.70;2.70;;;;;;;10.40;54.15;100805.55;107924;1254;61169;-85
2023/04/07 07:13:35;;;;;;;4.00;2.80;;;;;;;10.37;53.61;100807.11;108128;1254;61067;-84
2023/04/07 07:16:04;;;;;;;3.80;2.70;;;;;;;10.29;53.87;100799.42;108118;1254;75530;-84
2023/04/07 07:18:35;;;;;;;4.10;3.20;;;;;;;10.36;53.87;100804.58;108016;1254;71970;-86
2023/04/07 07:21:05;;;;;;;3.80;3.00;;;;;;;10.46;53.75;100807.73;108505;1254;70254;-85
2023/04/07 07:23:34;;;;;;;3.80;3.00;;;;;;;10.58;53.43;100805.16;108412;1254;61041;-83
2023/04/07 07:26:04;;;;;;;3.40;2.60;;;;;;;10.65;53.23;100807.27;108184;1254;61094;-82
2023/04/07 07:28:32;;;;;;;4.10;2.90;;;;;;;10.74;53.25;100810.88;108159;1254;74068;-83
2023/04/07 07:31:11;;;;;;;3.50;2.50;;;;;;;10.86;52.97;100813.09;108141;1254;72746;-85
2023/04/07 07:33:42;;;;;;;3.40;2.40;;;;;;;10.94;52.59;100812.31;108160;1254;73535;-85
2023/04/07 07:36:11;;;;;;;4.40;2.90;;;;;;;10.97;52.26;100811.59;108006;1259;60387;-84
2023/04/07 07:38:40;;;;;;;4.00;2.70;;;;;;;10.96;52.08;100814.70;108020;1254;61107;-85
2023/04/07 07:41:08;;;;;;;3.40;2.40;;;;;;;10.99;52.23;100814.08;108097;1257;73181;-85
2023/04/07 07:43:38;;;;;;;3.80;2.60;;;;;;;11.14;52.27;100819.07;108039;1254;72023;-85
2023/04/07 07:46:07;;;;;;;4.20;2.80;;;;;;;11.32;52.21;100814.35;108014;1259;73645;-84
2023/04/07 07:48:40;;;;;;;3.80;2.80;;;;;;;11.45;51.71;100819.16;108012;1254;61234;-84
2023/04/07 07:51:09;;;;;;;4.20;3.00;;;;;;;11.52;51.28;100821.57;107994;1254;61125;-85
2023/04/07 07:53:38;;;;;;;4.00;2.90;;;;;;;11.55;50.76;100822.59;108121;1254;75503;-85
2023/04/07 07:56:07;;;;;;;4.60;2.90;;;;;;;11.46;50.63;100822.54;108049;1254;73080;-84
2023/04/07 07:58:36;;;;;;;4.20;2.90;;;;;;;11.43;50.79;100822.95;108079;1254;73420;-83
2023/04/07 08:01:07;;;;;;;4.00;2.90;;;;;;;11.50;50.78;100824.34;107859;1254;61413;-84
2023/04/07 08:03:38;;;;;;;4.40;3.20;;;;;;;11.62;50.70;100830.05;108041;1254;61238;-83
2023/04/07 08:06:08;;;;;;;4.40;3.00;;;;;;;11.75;50.43;100824.04;108022;1254;75664;-84
2023/04/07 08:08:37;;;;;;;3.60;2.60;;;;;;;11.86;50.28;100826.90;107778;1254;73037;-84
2023/04/07 08:11:06;;;;;;;4.30;2.90;;;;;;;11.97;50.13;100825.59;108072;1254;72977;-84
2023/04/07 08:13:37;;;;;;;3.80;2.20;;;;;;;12.03;49.81;100824.33;108016;1257;61249;-84
2023/04/07 08:16:06;;;;;;;4.10;3.00;;;;;;;12.04;49.56;100825.35;108140;1254;61089;-86
2023/04/07 08:18:35;;;;;;;4.50;3.10;;;;;;;12.01;49.26;100826.08;108166;1254;75869;-85
2023/04/07 08:21:04;;;;;;;4.50;3.20;;;;;;;11.92;49.18;100828.02;108087;1255;71530;-84
2023/04/07 08:23:33;;;;;;;4.10;2.80;;;;;;;11.95;49.56;100828.30;108111;1254;72388;-83
2023/04/07 08:26:01;;;;;;;4.20;3.00;;;;;;;12.04;49.22;100825.63;108099;1254;61403;-85
2023/04/07 08:28:35;;;;;;;4.10;2.80;;;;;;;12.09;48.93;100823.98;108124;1254;61462;-84
2023/04/07 08:31:04;;;;;;;4.30;3.20;;;;;;;12.10;48.87;100820.61;108125;1259;75426;-83
2023/04/07 08:33:32;;;;;;;4.00;2.90;;;;;;;12.10;48.85;100820.23;108110;1254;72234;-84
2023/04/07 08:36:04;;;;;;;4.20;2.80;;;;;;;12.17;48.75;100819.85;108146;1259;72907;-83
2023/04/07 08:38:33;;;;;;;3.90;2.70;;;;;;;12.30;48.87;100819.95;108082;1254;61366;-83
2023/04/07 08:41:04;;;;;;;3.80;2.60;;;;;;;12.45;48.45;100820.77;108040;1254;61105;-84
2023/04/07 08:43:34;;;;;;;3.70;2.90;;;;;;;12.52;47.96;100822.33;108154;1254;73808;-83
2023/04/07 08:46:03;;;;;;;3.70;2.60;;;;;;;12.56;47.83;100823.32;108126;1257;72981;-84
2023/04/07 08:48:33;;;;;;;3.40;2.50;;;;;;;12.65;48.00;100828.16;108039;1256;72527;-84
2023/04/07 08:51:05;;;;;;;3.80;2.70;;;;;;;12.78;47.89;100829.11;107870;1254;60271;-85
2023/04/07 08:53:43;;;;;;;4.20;2.90;;;;;;;12.88;47.61;100826.51;108099;1257;60451;-84
2023/04/07 08:56:11;;;;;;;3.70;2.50;;;;;;;12.97;47.31;100824.33;108014;1254;72859;-83
2023/04/07 08:58:40;;;;;;;3.80;2.90;;;;;;;13.05;47.37;100824.33;107905;1254;73859;-83
2023/04/07 09:01:08;;;;;;;3.50;2.40;;;;;;;13.17;47.13;100825.52;107807;1257;72619;-84
2023/04/07 09:03:38;;;;;;;4.90;3.00;;;;;;;13.29;46.84;100829.41;108052;1256;61247;-82
2023/04/07 09:06:07;;;;;;;4.60;3.50;;;;;;;13.38;46.44;100831.09;108125;1257;61632;-84
2023/04/07 09:08:37;;;;;;;3.90;2.90;;;;;;;13.44;46.28;100832.09;107849;1254;74888;-85
2023/04/07 09:11:06;;;;;;;4.70;2.60;;;;;;;13.52;45.91;100825.92;108131;1254;72976;-85
2023/04/07 09:13:37;;;;;;;4.00;3.00;;;;;;;13.55;45.88;100826.94;108078;1259;72900;-83
2023/04/07 09:16:05;;;;;;;3.70;2.80;;;;;;;13.62;45.85;100829.55;107876;1254;61358;-83
2023/04/07 09:18:54;;;;;;;3.50;2.80;;;;;;;13.72;45.65;100831.38;108097;1254;61816;-83
2023/04/07 09:21:22;;;;;;;4.00;2.80;;;;;;;13.80;45.61;100828.25;108037;1254;75599;-85
2023/04/07 09:23:51;;;;;;;4.40;2.60;;;;;;;13.90;45.25;100828.02;107956;1254;73782;-84
2023/04/07 09:26:23;;;;;;;3.70;2.70;;;;;;;14.00;45.01;100830.83;108102;1254;73908;-85
2023/04/07 09:28:59;;;;;;;3.60;2.80;;;;;;;14.09;44.77;100828.45;108034;1256;61356;-86
2023/04/07 09:31:53;;;;;;;3.80;2.50;;;;;;;14.10;44.52;100825.42;108032;1259;61548;-85
2023/04/07 09:34:33;;;;;;;4.40;2.60;;;;;;;14.03;43.62;100828.30;108078;1254;75201;-85
2023/04/07 09:37:02;;;;;;;5.00;2.80;;;;;;;13.83;43.84;100828.61;107932;1260;73977;-83
2023/04/07 09:39:31;;;;;;;3.60;2.90;;;;;;;13.81;44.10;100830.61;108068;1254;73784;-83
2023/04/07 09:42:05;;;;;;;4.20;3.20;;;;;;;13.87;44.13;100832.04;108148;1254;61639;-83
2023/04/07 09:44:40;;;;;;;3.90;2.60;;;;;;;13.95;44.30;100834.02;108065;1254;61246;-84
2023/04/07 09:47:09;;;;;;;3.90;2.90;;;;;;;14.03;44.31;100834.73;108164;1254;73954;-85
2023/04/07 09:49:52;;;;;;;3.80;2.70;;;;;;;14.02;44.28;100835.30;108193;1254;72218;-84
2023/04/07 09:52:25;;;;;;;3.80;2.70;;;;;;;14.02;43.83;100833.79;108020;1257;71813;-84
2023/04/07 09:54:55;;;;;;;3.90;2.80;;;;;;;13.96;43.64;100832.56;108111;1254;61063;-85
2023/04/07 09:57:25;;;;;;;3.70;2.60;;;;;;;13.97;44.13;100832.13;107900;1254;61112;-84
2023/04/07 09:59:58;;;;;;;;;;;;;;;14.10;44.36;100829.13;108191;1254;74786;-85
2023/04/07 10:02:26;;;;;;;3.30;2.20;;;;;;;14.29;44.46;100828.15;108038;1254;72534;-85
2023/04/07 10:04:55;;;;;;;3.80;2.70;;;;;;;14.49;44.17;100823.52;108059;1254;73023;-84
2023/04/07 10:07:23;;;;;;;3.50;2.60;;;;;;;14.69;43.97;100830.58;108171;1254;59953;-83
2023/04/07 10:10:06;;;;;;;3.20;2.70;;;;;;;14.85;43.34;100832.95;108312;1254;61287;-83
2023/04/07 10:12:40;;;;;;;4.10;2.40;;;;;;;14.90;42.82;100830.40;108320;1254;74075;-84
2023/04/07 10:15:14;;;;;;;3.00;2.20;;;;;;;14.98;42.71;100830.40;108220;1254;71702;-84
2023/04/07 10:17:48;;;;;;;3.30;2.50;;;;;;;14.98;42.53;100831.59;104122;1254;5258861;-85
2023/04/07 10:20:17;;;;;;;3.80;2.50;;;;;;;15.01;42.49;100834.67;108153;1254;61251;-85
2023/04/07 10:22:47;;;;;;;3.20;2.10;;;;;;;14.99;41.92;100831.09;108080;1254;61378;-84
2023/04/07 10:25:18;;;;;;;3.90;2.40;;;;;;;14.95;41.86;100829.83;108069;1254;75664;-81
2023/04/07 10:27:55;;;;;;;3.40;2.20;;;;;;;14.86;41.45;100835.10;107974;1254;70735;-83
2023/04/07 10:30:28;;;;;;;3.30;2.20;;;;;;;14.65;41.64;100835.23;108083;1258;72931;-83
2023/04/07 10:33:17;;;;;;;4.40;2.30;;;;;;;14.66;41.83;100832.91;108109;1254;62028;-85
2023/04/07 10:36:27;;;;;;;3.50;2.70;;;;;;;14.69;41.87;100836.27;108073;1254;61951;-83
2023/04/07 10:39:06;;;;;;;3.40;2.20;;;;;;;14.79;41.71;100831.55;107962;1256;75538;-84
2023/04/07 10:41:40;;;;;;;3.70;2.60;;;;;;;14.82;41.57;100833.10;107992;1254;73197;-83
2023/04/07 10:44:42;;;;;;;3.20;2.10;;;;;;;14.86;41.60;100832.64;108033;1259;72069;-84
2023/04/07 10:47:13;;;;;;;3.00;2.10;;;;;;;14.95;41.52;100834.02;108069;1256;61263;-84
2023/04/07 10:50:11;;;;;;;3.60;2.60;;;;;;;15.05;41.30;100832.67;107827;1254;61093;-83
2023/04/07 10:52:41;;;;;;;2.90;2.20;;;;;;;15.03;40.85;100828.64;108108;1254;75012;-84
2023/04/07 10:55:31;;;;;;;3.20;2.20;;;;;;;15.02;40.99;100829.19;108072;1254;72802;-82
2023/04/07 10:58:23;;;;;;;3.60;2.60;;;;;;;15.03;41.08;100829.34;107990;1257;73241;-83
2023/04/07 11:01:08;;;;;;;3.20;2.30;;;;;;;15.03;40.86;100828.10;108055;1257;61252;-84
2023/04/07 11:03:38;;;;;;;3.20;2.10;;;;;;;15.04;40.72;100828.52;108117;1254;61092;-84
2023/04/07 11:06:11;;;;;;;3.40;2.50;;;;;;;14.96;40.52;100835.64;108177;1254;72702;-86
2023/04/07 11:08:42;;;;;;;3.60;2.30;;;;;;;14.93;40.70;100829.95;108110;1256;71498;-84
2023/04/07 11:11:40;;;;;;;3.00;2.10;;;;;;;14.90;40.59;100821.63;108189;1256;72539;-83
2023/04/07 11:14:12;;;;;;;2.70;1.80;;;;;;;14.95;40.45;100822.78;108029;1254;61103;-83
2023/04/07 11:17:02;;;;;;;2.90;1.90;;;;;;;15.08;40.46;100818.44;108062;1254;61537;-85
2023/04/07 11:19:51;;;;;;;3.20;2.10;;;;;;;15.17;40.23;100821.92;108157;1254;74835;-86
2023/04/07 11:22:58;;;;;;;2.70;1.80;;;;;;;15.26;40.11;100815.23;107837;1254;72917;-84
2023/04/07 11:25:27;;;;;;;2.80;1.90;;;;;;;15.36;39.70;100815.69;108027;1254;73017;-83
2023/04/07 11:27:56;;;;;;;3.30;2.30;;;;;;;15.46;39.99;100818.73;108006;1258;59304;-85
2023/04/07 11:30:31;;;;;;;3.20;2.20;;;;;;;15.55;39.32;100813.37;108040;1254;61145;-85
2023/04/07 11:33:01;;;;;;;3.00;2.20;;;;;;;15.50;39.25;100812.55;107968;1256;73767;-85
2023/04/07 11:35:29;;;;;;;2.40;1.70;;;;;;;15.52;39.54;100816.09;108035;1254;72356;-84
2023/04/07 11:38:03;;;;;;;3.40;2.20;;;;;;;15.61;39.38;100812.98;108202;1258;70981;-85
2023/04/07 11:40:33;;;;;;;2.70;1.80;;;;;;;15.50;39.09;100816.10;108109;1254;61483;-84
2023/04/07 11:43:13;;;;;;;3.00;2.10;;;;;;;15.45;39.23;100813.02;108085;1255;61193;-84
2023/04/07 11:45:42;;;;;;;3.10;2.00;;;;;;;15.45;39.58;100813.52;108068;1254;75971;-84
2023/04/07 11:48:30;;;;;;;2.80;1.90;;;;;;;15.56;39.86;100808.35;107907;1254;74501;-84
2023/04/07 11:50:59;;;;;;;3.10;2.30;;;;;;;15.70;39.25;100806.68;108029;1254;71976;-86